sensor_id;sensor_type;location;lat;lon;timestamp;pressure;altitude;pressure_sealevel;temperature;humidity
38780;BME280;29273;49.962;9.768;2023-02-28T00:00:25;100866.28;;;3.67;50.33
38780;BME280;29273;49.962;9.768;2023-02-28T00:02:51;100867.22;;;3.66;50.51
38780;BME280;29273;49.962;9.768;2023-02-28T00:05:19;100863.09;;;3.63;50.81
38780;BME280;29273;49.962;9.768;2023-02-28T00:07:45;100860.03;;;3.58;50.49
38780;BME280;29273;49.962;9.768;2023-02-28T00:10:13;100861.81;;;3.58;50.76
38780;BME280;29273;49.962;9.768;2023-02-28T00:12:40;100866.72;;;3.51;50.72
38780;BME280;29273;49.962;9.768;2023-02-28T00:15:09;100861.63;;;3.49;50.85
38780;BME280;29273;49.962;9.768;2023-02-28T00:17:36;100864.50;;;3.46;50.88
38780;BME280;29273;49.962;9.768;2023-02-28T00:20:03;100868.09;;;3.45;50.95
38780;BME280;29273;49.962;9.768;2023-02-28T00:22:30;100866.53;;;3.43;50.87
38780;BME280;29273;49.962;9.768;2023-02-28T00:24:55;100867.66;;;3.40;50.78
38780;BME280;29273;49.962;9.768;2023-02-28T00:27:21;100867.91;;;3.37;50.86
38780;BME280;29273;49.962;9.768;2023-02-28T00:29:46;100868.97;;;3.34;50.92
38780;BME280;29273;49.962;9.768;2023-02-28T00:32:12;100863.03;;;3.32;50.75
38780;BME280;29273;49.962;9.768;2023-02-28T00:34:37;100861.66;;;3.28;50.89
38780;BME280;29273;49.962;9.768;2023-02-28T00:37:07;100864.03;;;3.31;51.00
38780;BME280;29273;49.962;9.768;2023-02-28T00:39:35;100863.28;;;3.29;51.02
38780;BME280;29273;49.962;9.768;2023-02-28T00:42:01;100863.41;;;3.28;50.82
38780;BME280;29273;49.962;9.768;2023-02-28T00:44:39;100871.16;;;3.29;51.58
38780;BME280;29273;49.962;9.768;2023-02-28T00:47:05;100874.19;;;3.25;50.73
38780;BME280;29273;49.962;9.768;2023-02-28T00:49:30;100875.13;;;3.24;50.90
38780;BME280;29273;49.962;9.768;2023-02-28T00:51:56;100864.91;;;3.21;50.89
38780;BME280;29273;49.962;9.768;2023-02-28T00:54:23;100864.91;;;3.21;51.07
38780;BME280;29273;49.962;9.768;2023-02-28T00:56:48;100872.88;;;3.19;50.41
38780;BME280;29273;49.962;9.768;2023-02-28T00:59:15;100874.69;;;3.19;50.83
38780;BME280;29273;49.962;9.768;2023-02-28T01:01:42;100870.38;;;3.18;50.79
38780;BME280;29273;49.962;9.768;2023-02-28T01:04:08;100867.19;;;3.14;50.61
38780;BME280;29273;49.962;9.768;2023-02-28T01:06:34;100867.44;;;3.11;50.88
38780;BME280;29273;49.962;9.768;2023-02-28T01:09:01;100867.44;;;3.11;50.86
38780;BME280;29273;49.962;9.768;2023-02-28T01:11:28;100865.06;;;3.08;50.78
38780;BME280;29273;49.962;9.768;2023-02-28T01:13:53;100868.66;;;3.07;50.94
38780;BME280;29273;49.962;9.768;2023-02-28T01:16:19;100860.94;;;3.05;50.94
38780;BME280;29273;49.962;9.768;2023-02-28T01:18:44;100861.06;;;3.04;51.12
38780;BME280;29273;49.962;9.768;2023-02-28T01:21:13;100865.31;;;3.05;51.35
38780;BME280;29273;49.962;9.768;2023-02-28T01:23:39;100866.31;;;3.04;51.37
38780;BME280;29273;49.962;9.768;2023-02-28T01:26:27;100858.31;;;3.05;51.69
38780;BME280;29273;49.962;9.768;2023-02-28T01:28:53;100869.63;;;3.06;51.62
38780;BME280;29273;49.962;9.768;2023-02-28T01:31:20;100858.06;;;3.08;51.69
38780;BME280;29273;49.962;9.768;2023-02-28T01:33:46;100858.19;;;3.07;51.53
38780;BME280;29273;49.962;9.768;2023-02-28T01:36:16;100850.91;;;3.10;51.67
38780;BME280;29273;49.962;9.768;2023-02-28T01:38:43;100856.97;;;3.11;51.63
38780;BME280;29273;49.962;9.768;2023-02-28T01:41:16;100858.41;;;3.15;51.97
38780;BME280;29273;49.962;9.768;2023-02-28T01:46:07;100846.38;;;3.12;51.62
38780;BME280;29273;49.962;9.768;2023-02-28T01:48:35;100841.72;;;3.16;51.96
38780;BME280;29273;49.962;9.768;2023-02-28T01:51:06;100842.56;;;3.17;51.86
38780;BME280;29273;49.962;9.768;2023-02-28T01:53:39;100840.06;;;3.15;51.48
38780;BME280;29273;49.962;9.768;2023-02-28T01:56:07;100837.72;;;3.12;51.39
38780;BME280;29273;49.962;9.768;2023-02-28T01:58:35;100834.41;;;3.10;51.54
38780;BME280;29273;49.962;9.768;2023-02-28T02:01:01;100829.41;;;3.07;51.30
38780;BME280;29273;49.962;9.768;2023-02-28T02:03:28;100826.22;;;3.03;51.25
38780;BME280;29273;49.962;9.768;2023-02-28T02:05:54;100829.78;;;3.02;51.31
38780;BME280;29273;49.962;9.768;2023-02-28T02:08:26;100828.13;;;3.01;51.56
38780;BME280;29273;49.962;9.768;2023-02-28T02:10:59;100833.34;;;3.01;51.42
38780;BME280;29273;49.962;9.768;2023-02-28T02:18:53;100821.88;;;2.92;51.53
38780;BME280;29273;49.962;9.768;2023-02-28T02:32:44;100806.47;;;2.78;51.68
38780;BME280;29273;49.962;9.768;2023-02-28T02:35:47;100808.38;;;2.76;52.11
38780;BME280;29273;49.962;9.768;2023-02-28T02:44:02;100811.31;;;2.62;51.97
38780;BME280;29273;49.962;9.768;2023-02-28T02:46:39;100812.97;;;2.63;52.15
38780;BME280;29273;49.962;9.768;2023-02-28T02:49:09;100814.88;;;2.61;51.89
38780;BME280;29273;49.962;9.768;2023-02-28T02:51:38;100817.75;;;2.57;51.78
38780;BME280;29273;49.962;9.768;2023-02-28T02:54:13;100815.69;;;2.61;52.25
38780;BME280;29273;49.962;9.768;2023-02-28T02:56:45;100815.94;;;2.58;52.02
38780;BME280;29273;49.962;9.768;2023-02-28T02:59:14;100813.44;;;2.56;51.66
38780;BME280;29273;49.962;9.768;2023-02-28T03:01:48;100813.44;;;2.56;51.98
38780;BME280;29273;49.962;9.768;2023-02-28T03:04:21;100817.75;;;2.57;52.04
38780;BME280;29273;49.962;9.768;2023-02-28T03:06:47;100825.28;;;2.39;52.72
38780;BME280;29273;49.962;9.768;2023-02-28T03:09:13;100819.31;;;2.49;51.88
38780;BME280;29273;49.962;9.768;2023-02-28T03:11:39;100817.53;;;2.49;51.76
38780;BME280;29273;49.962;9.768;2023-02-28T03:17:22;100823.13;;;2.45;52.47
38780;BME280;29273;49.962;9.768;2023-02-28T03:20:01;100820.91;;;2.40;51.74
38780;BME280;29273;49.962;9.768;2023-02-28T03:25:18;100814.69;;;2.41;52.39
38780;BME280;29273;49.962;9.768;2023-02-28T03:28:38;100817.31;;;2.41;52.09
38780;BME280;29273;49.962;9.768;2023-02-28T03:30:51;100820.91;;;2.40;52.49
38780;BME280;29273;49.962;9.768;2023-02-28T03:33:23;100813.88;;;2.40;52.11
38780;BME280;29273;49.962;9.768;2023-02-28T03:36:01;100817.31;;;2.41;52.55
38780;BME280;29273;49.962;9.768;2023-02-28T03:38:49;100821.03;;;2.38;52.53
38780;BME280;29273;49.962;9.768;2023-02-28T03:41:22;100813.19;;;2.38;52.39
38780;BME280;29273;49.962;9.768;2023-02-28T03:44:11;100819.59;;;2.34;52.16
38780;BME280;29273;49.962;9.768;2023-02-28T03:46:45;100823.19;;;2.33;52.16
38780;BME280;29273;49.962;9.768;2023-02-28T03:49:20;100824.81;;;2.34;52.10
38780;BME280;29273;49.962;9.768;2023-02-28T03:51:49;100820.56;;;2.33;52.14
38780;BME280;29273;49.962;9.768;2023-02-28T03:54:20;100816.41;;;2.31;51.89
38780;BME280;29273;49.962;9.768;2023-02-28T03:56:55;100819.84;;;2.31;52.05
38780;BME280;29273;49.962;9.768;2023-02-28T03:59:28;100824.34;;;2.29;52.15
38780;BME280;29273;49.962;9.768;2023-02-28T04:01:57;100821.16;;;2.26;51.94
38780;BME280;29273;49.962;9.768;2023-02-28T04:04:23;100818.09;;;2.20;51.70
38780;BME280;29273;49.962;9.768;2023-02-28T04:06:50;100822.50;;;2.20;51.50
38780;BME280;29273;49.962;9.768;2023-02-28T04:09:16;100827.97;;;2.17;51.68
38780;BME280;29273;49.962;9.768;2023-02-28T04:11:45;100819.41;;;2.15;51.90
38780;BME280;29273;49.962;9.768;2023-02-28T04:14:13;100822.50;;;2.09;51.77
38780;BME280;29273;49.962;9.768;2023-02-28T04:16:40;100823.34;;;2.09;51.75
38780;BME280;29273;49.962;9.768;2023-02-28T04:19:08;100824.44;;;2.07;51.95
38780;BME280;29273;49.962;9.768;2023-02-28T04:21:39;100827.03;;;2.07;52.19
38780;BME280;29273;49.962;9.768;2023-02-28T04:24:10;100832.84;;;1.99;52.06
38780;BME280;29273;49.962;9.768;2023-02-28T04:26:43;100824.19;;;1.98;51.94
38780;BME280;29273;49.962;9.768;2023-02-28T04:29:11;100826.06;;;1.96;52.04
38780;BME280;29273;49.962;9.768;2023-02-28T04:31:38;100830.59;;;1.94;51.96
38780;BME280;29273;49.962;9.768;2023-02-28T04:34:03;100824.78;;;1.91;52.26
38780;BME280;29273;49.962;9.768;2023-02-28T04:36:29;100822.28;;;1.89;52.08
38780;BME280;29273;49.962;9.768;2023-02-28T04:38:54;100826.59;;;1.90;52.29
38780;BME280;29273;49.962;9.768;2023-02-28T04:41:21;100827.41;;;1.91;52.35
38780;BME280;29273;49.962;9.768;2023-02-28T04:43:47;100830.72;;;1.93;52.15
38780;BME280;29273;49.962;9.768;2023-02-28T04:46:12;100835.00;;;1.94;52.28
38780;BME280;29273;49.962;9.768;2023-02-28T04:48:39;100834.88;;;1.95;52.04
38780;BME280;29273;49.962;9.768;2023-02-28T04:51:10;100823.34;;;1.98;52.45
38780;BME280;29273;49.962;9.768;2023-02-28T04:53:37;100817.53;;;1.94;52.22
38780;BME280;29273;49.962;9.768;2023-02-28T04:56:03;100819.22;;;1.95;52.13
38780;BME280;29273;49.962;9.768;2023-02-28T04:58:29;100822.88;;;1.93;51.87
38780;BME280;29273;49.962;9.768;2023-02-28T05:01:05;100827.88;;;1.96;52.35
38780;BME280;29273;49.962;9.768;2023-02-28T05:03:41;100821.94;;;1.94;52.21
38780;BME280;29273;49.962;9.768;2023-02-28T05:06:07;100834.53;;;1.89;51.88
38780;BME280;29273;49.962;9.768;2023-02-28T05:08:33;100834.66;;;1.87;51.67
38780;BME280;29273;49.962;9.768;2023-02-28T05:10:59;100836.44;;;1.87;51.85
38780;BME280;29273;49.962;9.768;2023-02-28T05:13:26;100838.09;;;1.88;52.13
38780;BME280;29273;49.962;9.768;2023-02-28T05:15:52;100842.50;;;1.87;51.94
38780;BME280;29273;49.962;9.768;2023-02-28T05:18:18;100837.25;;;1.87;51.62
38780;BME280;29273;49.962;9.768;2023-02-28T05:20:43;100834.66;;;1.87;51.95
38780;BME280;29273;49.962;9.768;2023-02-28T05:23:11;100840.34;;;1.92;52.30
38780;BME280;29273;49.962;9.768;2023-02-28T05:25:38;100839.75;;;1.89;51.76
38780;BME280;29273;49.962;9.768;2023-02-28T05:28:04;100840.69;;;1.88;51.74
38780;BME280;29273;49.962;9.768;2023-02-28T05:30:30;100840.81;;;1.86;51.63
38780;BME280;29273;49.962;9.768;2023-02-28T05:32:57;100844.41;;;1.85;51.83
38780;BME280;29273;49.962;9.768;2023-02-28T05:35:23;100841.91;;;1.83;51.72
38780;BME280;29273;49.962;9.768;2023-02-28T05:37:49;100838.56;;;1.81;51.59
38780;BME280;29273;49.962;9.768;2023-02-28T05:40:15;100853.41;;;1.81;51.89
38780;BME280;29273;49.962;9.768;2023-02-28T05:42:41;100845.69;;;1.79;51.73
38780;BME280;29273;49.962;9.768;2023-02-28T05:45:07;100849.16;;;1.80;51.91
38780;BME280;29273;49.962;9.768;2023-02-28T05:47:32;100849.25;;;1.78;51.86
38780;BME280;29273;49.962;9.768;2023-02-28T05:49:58;100853.63;;;1.78;52.01
38780;BME280;29273;49.962;9.768;2023-02-28T05:52:24;100850.19;;;1.77;51.78
38780;BME280;29273;49.962;9.768;2023-02-28T05:54:49;100853.06;;;1.74;51.98
38780;BME280;29273;49.962;9.768;2023-02-28T05:57:15;100855.66;;;1.74;51.89
38780;BME280;29273;49.962;9.768;2023-02-28T05:59:40;100853.06;;;1.74;51.82
38780;BME280;29273;49.962;9.768;2023-02-28T06:02:10;100852.81;;;1.77;52.31
38780;BME280;29273;49.962;9.768;2023-02-28T06:04:37;100849.72;;;1.72;51.88
38780;BME280;29273;49.962;9.768;2023-02-28T06:07:02;100862.69;;;1.74;52.05
38780;BME280;29273;49.962;9.768;2023-02-28T06:09:28;100853.06;;;1.74;51.95
38780;BME280;29273;49.962;9.768;2023-02-28T06:11:54;100856.47;;;1.75;51.88
38780;BME280;29273;49.962;9.768;2023-02-28T06:14:20;100857.22;;;1.77;52.19
38780;BME280;29273;49.962;9.768;2023-02-28T06:16:46;100864.94;;;1.78;52.02
38780;BME280;29273;49.962;9.768;2023-02-28T06:19:11;100864.94;;;1.78;51.96
38780;BME280;29273;49.962;9.768;2023-02-28T06:21:38;100862.22;;;1.80;52.05
38780;BME280;29273;49.962;9.768;2023-02-28T06:24:04;100867.28;;;1.81;52.03
38780;BME280;29273;49.962;9.768;2023-02-28T06:26:30;100871.47;;;1.84;52.10
38780;BME280;29273;49.962;9.768;2023-02-28T06:28:56;100872.41;;;1.83;51.94
38780;BME280;29273;49.962;9.768;2023-02-28T06:31:22;100883.56;;;1.85;51.85
38780;BME280;29273;49.962;9.768;2023-02-28T06:33:48;100886.06;;;1.87;52.13
38780;BME280;29273;49.962;9.768;2023-02-28T06:36:16;100891.03;;;1.90;52.02
38780;BME280;29273;49.962;9.768;2023-02-28T06:38:42;100892.72;;;1.91;52.12
38780;BME280;29273;49.962;9.768;2023-02-28T06:41:09;100893.31;;;1.94;52.10
38780;BME280;29273;49.962;9.768;2023-02-28T06:43:37;100900.91;;;1.97;51.99
38780;BME280;29273;49.962;9.768;2023-02-28T06:46:06;100898.28;;;1.97;52.06
38780;BME280;29273;49.962;9.768;2023-02-28T06:48:32;100894.63;;;2.00;52.13
38780;BME280;29273;49.962;9.768;2023-02-28T06:51:05;100900.44;;;2.03;52.35
38780;BME280;29273;49.962;9.768;2023-02-28T06:53:31;100905.91;;;2.00;52.00
38780;BME280;29273;49.962;9.768;2023-02-28T06:55:57;100902.31;;;2.01;52.09
38780;BME280;29273;49.962;9.768;2023-02-28T06:58:23;100899.59;;;2.03;51.89
38780;BME280;29273;49.962;9.768;2023-02-28T07:00:50;100907.78;;;2.10;52.37
38780;BME280;29273;49.962;9.768;2023-02-28T07:03:16;100909.69;;;2.08;51.83
38780;BME280;29273;49.962;9.768;2023-02-28T07:05:43;100909.56;;;2.09;51.82
38780;BME280;29273;49.962;9.768;2023-02-28T07:08:09;100911.25;;;2.10;51.97
38780;BME280;29273;49.962;9.768;2023-02-28T07:10:37;100918.69;;;2.15;52.21
38780;BME280;29273;49.962;9.768;2023-02-28T07:13:03;100912.66;;;2.14;52.02
38780;BME280;29273;49.962;9.768;2023-02-28T07:15:29;100910.84;;;2.15;52.22
38780;BME280;29273;49.962;9.768;2023-02-28T07:17:54;100921.09;;;2.18;51.98
38780;BME280;29273;49.962;9.768;2023-02-28T07:20:22;100925.38;;;2.19;52.07
38780;BME280;29273;49.962;9.768;2023-02-28T07:22:48;100920.97;;;2.19;52.09
38780;BME280;29273;49.962;9.768;2023-02-28T07:25:23;100927.16;;;2.07;53.62
38780;BME280;29273;49.962;9.768;2023-02-28T07:27:49;100922.63;;;2.20;52.71
38780;BME280;29273;49.962;9.768;2023-02-28T07:30:15;100918.94;;;2.23;52.39
38780;BME280;29273;49.962;9.768;2023-02-28T07:32:41;100924.91;;;2.25;52.42
38780;BME280;29273;49.962;9.768;2023-02-28T07:35:07;100919.56;;;2.27;52.13
38780;BME280;29273;49.962;9.768;2023-02-28T07:37:32;100925.38;;;2.30;52.32
38780;BME280;29273;49.962;9.768;2023-02-28T07:40:06;100920.59;;;2.35;52.70
38780;BME280;29273;49.962;9.768;2023-02-28T07:42:37;100920.72;;;2.34;52.66
38780;BME280;29273;49.962;9.768;2023-02-28T07:45:04;100917.88;;;2.37;52.04
38780;BME280;29273;49.962;9.768;2023-02-28T07:47:30;100919.50;;;2.38;52.51
38780;BME280;29273;49.962;9.768;2023-02-28T07:49:56;100935.81;;;2.42;52.50
38780;BME280;29273;49.962;9.768;2023-02-28T07:52:22;100923.34;;;2.45;52.38
38780;BME280;29273;49.962;9.768;2023-02-28T07:54:49;100923.91;;;2.49;52.20
38780;BME280;29273;49.962;9.768;2023-02-28T07:57:15;100925.44;;;2.51;52.23
38780;BME280;29273;49.962;9.768;2023-02-28T07:59:41;100925.09;;;2.56;52.29
38780;BME280;29273;49.962;9.768;2023-02-28T08:02:06;100921.41;;;2.58;52.22
38780;BME280;29273;49.962;9.768;2023-02-28T08:04:33;100928.88;;;2.63;52.20
38780;BME280;29273;49.962;9.768;2023-02-28T08:06:59;100927.78;;;2.66;52.21
38780;BME280;29273;49.962;9.768;2023-02-28T08:09:24;100928.38;;;2.69;52.50
38780;BME280;29273;49.962;9.768;2023-02-28T08:11:50;100924.69;;;2.72;52.23
38780;BME280;29273;49.962;9.768;2023-02-28T08:14:15;100930.50;;;2.75;52.82
38780;BME280;29273;49.962;9.768;2023-02-28T08:16:41;100919.09;;;2.76;52.06
38780;BME280;29273;49.962;9.768;2023-02-28T08:19:08;100918.72;;;2.81;52.24
38780;BME280;29273;49.962;9.768;2023-02-28T08:21:34;100926.31;;;2.84;52.15
38780;BME280;29273;49.962;9.768;2023-02-28T08:23:59;100924.28;;;2.88;52.20
38780;BME280;29273;49.962;9.768;2023-02-28T08:26:25;100924.72;;;2.93;54.18
38780;BME280;29273;49.962;9.768;2023-02-28T08:28:51;100918.44;;;2.95;52.82
38780;BME280;29273;49.962;9.768;2023-02-28T08:31:17;100923.31;;;3.00;52.46
38780;BME280;29273;49.962;9.768;2023-02-28T08:33:43;100923.75;;;3.05;52.30
38780;BME280;29273;49.962;9.768;2023-02-28T08:36:10;100920.75;;;3.10;52.27
38780;BME280;29273;49.962;9.768;2023-02-28T08:38:36;100923.84;;;3.15;51.99
38780;BME280;29273;49.962;9.768;2023-02-28T08:41:07;100914.50;;;3.22;52.15
38780;BME280;29273;49.962;9.768;2023-02-28T08:43:34;100921.41;;;3.23;51.88
38780;BME280;29273;49.962;9.768;2023-02-28T08:46:00;100921.88;;;3.28;52.06
38780;BME280;29273;49.962;9.768;2023-02-28T08:48:27;100917.91;;;3.34;51.89
38780;BME280;29273;49.962;9.768;2023-02-28T08:51:04;100922.50;;;3.42;52.90
38780;BME280;29273;49.962;9.768;2023-02-28T08:53:30;100917.28;;;3.42;52.00
38780;BME280;29273;49.962;9.768;2023-02-28T08:56:03;100924.47;;;3.49;53.12
38780;BME280;29273;49.962;9.768;2023-02-28T08:58:29;100923.78;;;3.47;51.48
38780;BME280;29273;49.962;9.768;2023-02-28T09:00:55;100917.22;;;3.53;51.29
38780;BME280;29273;49.962;9.768;2023-02-28T09:03:22;100923.84;;;3.57;51.74
38780;BME280;29273;49.962;9.768;2023-02-28T09:05:55;100926.66;;;3.65;53.03
38780;BME280;29273;49.962;9.768;2023-02-28T09:08:22;100920.59;;;3.65;51.21
38780;BME280;29273;49.962;9.768;2023-02-28T09:10:47;100918.41;;;3.70;52.65
38780;BME280;29273;49.962;9.768;2023-02-28T09:13:13;100918.97;;;3.74;51.74
38780;BME280;29273;49.962;9.768;2023-02-28T09:15:38;100915.38;;;3.75;50.85
38780;BME280;29273;49.962;9.768;2023-02-28T09:18:04;100914.19;;;3.79;50.70
38780;BME280;29273;49.962;9.768;2023-02-28T09:20:29;100912.94;;;3.83;50.49
38780;BME280;29273;49.962;9.768;2023-02-28T09:22:55;100928.03;;;3.91;52.82
38780;BME280;29273;49.962;9.768;2023-02-28T09:25:20;100925.28;;;3.92;51.63
38780;BME280;29273;49.962;9.768;2023-02-28T09:27:46;100917.16;;;3.95;50.87
38780;BME280;29273;49.962;9.768;2023-02-28T09:30:12;100916.75;;;4.00;51.45
38780;BME280;29273;49.962;9.768;2023-02-28T09:32:38;100916.34;;;4.04;51.05
38780;BME280;29273;49.962;9.768;2023-02-28T09:35:03;100916.09;;;4.07;50.74
38780;BME280;29273;49.962;9.768;2023-02-28T09:37:29;100920.81;;;4.14;52.80
38780;BME280;29273;49.962;9.768;2023-02-28T09:39:56;100920.81;;;4.14;49.80
38780;BME280;29273;49.962;9.768;2023-02-28T09:42:27;100914.75;;;4.23;51.40
38780;BME280;29273;49.962;9.768;2023-02-28T09:44:56;100915.88;;;4.20;49.82
38780;BME280;29273;49.962;9.768;2023-02-28T09:47:32;100916.56;;;4.22;49.80
38780;BME280;29273;49.962;9.768;2023-02-28T09:50:11;100922.91;;;4.30;51.42
38780;BME280;29273;49.962;9.768;2023-02-28T09:52:42;100921.28;;;4.29;51.14
38780;BME280;29273;49.962;9.768;2023-02-28T09:55:31;100916.72;;;4.31;51.72
38780;BME280;29273;49.962;9.768;2023-02-28T09:57:59;100917.53;;;4.31;48.61
38780;BME280;29273;49.962;9.768;2023-02-28T10:00:38;100919.50;;;4.39;51.03
38780;BME280;29273;49.962;9.768;2023-02-28T10:03:26;100920.47;;;4.38;52.30
38780;BME280;29273;49.962;9.768;2023-02-28T10:08:52;100931.72;;;4.50;54.18
38780;BME280;29273;49.962;9.768;2023-02-28T10:11:22;100920.09;;;4.52;50.79
38780;BME280;29273;49.962;9.768;2023-02-28T10:16:25;100930.91;;;4.69;52.07
38780;BME280;29273;49.962;9.768;2023-02-28T10:21:47;100919.75;;;4.76;50.34
38780;BME280;29273;49.962;9.768;2023-02-28T10:24:28;100924.28;;;4.84;50.90
38780;BME280;29273;49.962;9.768;2023-02-28T10:27:23;100923.19;;;4.87;51.07
38780;BME280;29273;49.962;9.768;2023-02-28T10:29:54;100919.47;;;4.99;50.39
38780;BME280;29273;49.962;9.768;2023-02-28T10:32:25;100925.81;;;5.06;50.38
38780;BME280;29273;49.962;9.768;2023-02-28T10:37:31;100900.41;;;5.16;48.81
38780;BME280;29273;49.962;9.768;2023-02-28T10:39:57;100914.50;;;5.25;49.32
38780;BME280;29273;49.962;9.768;2023-02-28T10:42:28;100915.44;;;5.34;49.16
38780;BME280;29273;49.962;9.768;2023-02-28T10:47:33;100924.41;;;5.41;47.82
38780;BME280;29273;49.962;9.768;2023-02-28T10:49:59;100916.38;;;5.43;47.90
38780;BME280;29273;49.962;9.768;2023-02-28T10:52:39;100917.50;;;5.50;50.30
38780;BME280;29273;49.962;9.768;2023-02-28T10:55:21;100919.00;;;5.52;50.14
38780;BME280;29273;49.962;9.768;2023-02-28T10:57:47;100913.06;;;5.50;48.46
38780;BME280;29273;49.962;9.768;2023-02-28T11:00:20;100915.00;;;5.58;48.92
38780;BME280;29273;49.962;9.768;2023-02-28T11:02:47;100912.78;;;5.53;46.80
38780;BME280;29273;49.962;9.768;2023-02-28T11:05:33;100901.00;;;5.57;50.40
38780;BME280;29273;49.962;9.768;2023-02-28T11:08:10;100902.41;;;5.62;49.02
38780;BME280;29273;49.962;9.768;2023-02-28T11:10:37;100896.59;;;5.58;47.94
38780;BME280;29273;49.962;9.768;2023-02-28T11:13:05;100889.13;;;5.63;48.47
38780;BME280;29273;49.962;9.768;2023-02-28T11:15:32;100886.75;;;5.70;48.74
38780;BME280;29273;49.962;9.768;2023-02-28T11:18:01;100886.59;;;5.71;46.48
38780;BME280;29273;49.962;9.768;2023-02-28T11:20:32;100883.78;;;5.83;51.97
38780;BME280;29273;49.962;9.768;2023-02-28T11:23:00;100885.03;;;5.88;51.01
38780;BME280;29273;49.962;9.768;2023-02-28T11:25:30;100882.94;;;5.92;47.39
38780;BME280;29273;49.962;9.768;2023-02-28T11:27:59;100888.47;;;5.99;47.57
38780;BME280;29273;49.962;9.768;2023-02-28T11:30:34;100882.34;;;6.08;49.07
38780;BME280;29273;49.962;9.768;2023-02-28T11:36:03;100877.97;;;6.26;48.04
38780;BME280;29273;49.962;9.768;2023-02-28T11:38:33;100879.53;;;6.37;48.53
38780;BME280;29273;49.962;9.768;2023-02-28T11:46:43;100875.44;;;6.71;48.49
38780;BME280;29273;49.962;9.768;2023-02-28T11:52:54;100871.69;;;6.91;49.88
38780;BME280;29273;49.962;9.768;2023-02-28T11:58:38;100864.91;;;7.07;46.33
38780;BME280;29273;49.962;9.768;2023-02-28T12:04:42;100875.94;;;7.28;48.15
38780;BME280;29273;49.962;9.768;2023-02-28T12:17:59;100870.69;;;7.10;48.03
38780;BME280;29273;49.962;9.768;2023-02-28T12:26:11;100855.13;;;6.99;46.68
38780;BME280;29273;49.962;9.768;2023-02-28T12:28:46;100865.50;;;7.00;48.43
38780;BME280;29273;49.962;9.768;2023-02-28T12:31:18;100855.56;;;6.94;44.89
38780;BME280;29273;49.962;9.768;2023-02-28T12:33:50;100850.00;;;6.97;45.54
38780;BME280;29273;49.962;9.768;2023-02-28T12:36:18;100845.41;;;6.99;49.09
38780;BME280;29273;49.962;9.768;2023-02-28T12:38:55;100836.69;;;6.99;44.20
38780;BME280;29273;49.962;9.768;2023-02-28T12:41:42;100840.31;;;6.98;47.95
38780;BME280;29273;49.962;9.768;2023-02-28T12:44:21;100835.41;;;7.03;47.07
38780;BME280;29273;49.962;9.768;2023-02-28T12:46:51;100830.16;;;7.03;45.71
38780;BME280;29273;49.962;9.768;2023-02-28T12:51:46;100836.06;;;7.05;43.63
38780;BME280;29273;49.962;9.768;2023-02-28T12:54:26;100829.34;;;7.11;44.89
38780;BME280;29273;49.962;9.768;2023-02-28T12:57:02;100821.16;;;7.14;49.27
38780;BME280;29273;49.962;9.768;2023-02-28T13:10:47;100824.56;;;7.06;44.38
38780;BME280;29273;49.962;9.768;2023-02-28T13:13:24;100825.91;;;7.10;44.65
38780;BME280;29273;49.962;9.768;2023-02-28T13:15:59;100819.84;;;6.92;48.27
38780;BME280;29273;49.962;9.768;2023-02-28T13:18:46;100818.47;;;7.06;47.63
38780;BME280;29273;49.962;9.768;2023-02-28T13:21:27;100820.13;;;7.07;42.39
38780;BME280;29273;49.962;9.768;2023-02-28T13:34:32;100819.72;;;7.19;45.31
38780;BME280;29273;49.962;9.768;2023-02-28T13:42:37;100830.13;;;7.29;43.30
38780;BME280;29273;49.962;9.768;2023-02-28T13:47:55;100822.59;;;7.34;44.04
38780;BME280;29273;49.962;9.768;2023-02-28T13:50:36;100816.72;;;7.40;45.07
38780;BME280;29273;49.962;9.768;2023-02-28T13:58:59;100803.56;;;7.49;49.08
38780;BME280;29273;49.962;9.768;2023-02-28T14:01:31;100803.88;;;7.46;42.84
38780;BME280;29273;49.962;9.768;2023-02-28T14:04:16;100805.91;;;7.52;45.97
38780;BME280;29273;49.962;9.768;2023-02-28T14:06:54;100806.25;;;7.57;45.81
38780;BME280;29273;49.962;9.768;2023-02-28T14:09:27;100797.22;;;7.59;45.31
38780;BME280;29273;49.962;9.768;2023-02-28T14:11:54;100802.50;;;7.59;43.15
38780;BME280;29273;49.962;9.768;2023-02-28T14:17:05;100804.66;;;7.72;46.51
38780;BME280;29273;49.962;9.768;2023-02-28T14:19:35;100797.75;;;7.71;44.78
38780;BME280;29273;49.962;9.768;2023-02-28T14:27:47;100794.63;;;7.76;45.06
38780;BME280;29273;49.962;9.768;2023-02-28T14:36:26;100790.03;;;7.78;47.09
38780;BME280;29273;49.962;9.768;2023-02-28T14:38:54;100784.94;;;7.76;43.42
38780;BME280;29273;49.962;9.768;2023-02-28T14:41:30;100796.94;;;7.79;44.49
38780;BME280;29273;49.962;9.768;2023-02-28T14:43:58;100789.19;;;7.77;43.78
38780;BME280;29273;49.962;9.768;2023-02-28T14:46:30;100788.22;;;7.78;44.86
38780;BME280;29273;49.962;9.768;2023-02-28T14:49:00;100786.91;;;7.74;42.38
38780;BME280;29273;49.962;9.768;2023-02-28T14:51:25;100785.09;;;7.75;42.97
38780;BME280;29273;49.962;9.768;2023-02-28T14:53:57;100787.25;;;7.80;45.00
38780;BME280;29273;49.962;9.768;2023-02-28T14:56:36;100784.63;;;7.80;45.19
38780;BME280;29273;49.962;9.768;2023-02-28T14:59:03;100791.16;;;7.75;43.14
38780;BME280;29273;49.962;9.768;2023-02-28T15:01:29;100785.25;;;7.73;42.86
38780;BME280;29273;49.962;9.768;2023-02-28T15:04:04;100786.56;;;7.77;45.89
38780;BME280;29273;49.962;9.768;2023-02-28T15:06:30;100784.56;;;7.71;43.20
38780;BME280;29273;49.962;9.768;2023-02-28T15:09:18;100782.59;;;7.73;46.14
38780;BME280;29273;49.962;9.768;2023-02-28T15:11:47;100769.56;;;7.72;44.52
38780;BME280;29273;49.962;9.768;2023-02-28T15:14:17;100774.84;;;7.72;44.70
38780;BME280;29273;49.962;9.768;2023-02-28T15:16:46;100773.34;;;7.69;43.52
38780;BME280;29273;49.962;9.768;2023-02-28T15:19:30;100776.47;;;7.65;42.63
38780;BME280;29273;49.962;9.768;2023-02-28T15:22:03;100771.88;;;7.67;44.16
38780;BME280;29273;49.962;9.768;2023-02-28T15:24:36;100771.88;;;7.67;45.34